Sharon Valley, Connecticut
Current Conditions -  °F | °C
As of 4:35 AM on Thursday 27 Nov 2014 (Local Time) from KPOU Reporting Station
Overcast Overcast  
Wind Chill: 32°   Ceiling: 2800
Heat Index: 32°   Visibility: 10mi
Dew Point: 28°   Wind: 3mph
Humidity: 85%   Direction: 350°N
Pressure: 29.93"   Gusts: NA
Location:  41.8554°N, 73.4421°W
Report Text: KPOU 270935Z 35003KT 10SM BKN028 OVC080 00/M02 A2993 RMK AO2 T00001022
Loading
Personal Weather Stations






























Interactive Weather Map New forecast layout! Learn more

10-Day Weather Forecast

Advertisements
Track Severe Weather on mobile